createdAt,value
2023-01-25T00:03:51.648Z,57.10
2023-01-25T00:07:54.540Z,55.30
2023-01-25T00:12:01.664Z,61.20
2023-01-25T00:16:05.239Z,56.70
2023-01-25T00:20:09.542Z,54.40
2023-01-25T00:24:14.717Z,52.40
2023-01-25T00:28:17.625Z,56.40
2023-01-25T00:32:20.657Z,54.40
2023-01-25T00:36:27.524Z,56.30
2023-01-25T00:40:30.502Z,54.30
2023-01-25T00:44:33.264Z,49.90
2023-01-25T00:48:36.026Z,55.90
2023-01-25T00:52:43.907Z,56.40
2023-01-25T00:56:46.818Z,57.10
2023-01-25T01:00:55.213Z,52.80
2023-01-25T01:04:58.108Z,53.90
2023-01-25T01:09:01.041Z,51.40
2023-01-25T01:13:03.958Z,41.10
2023-01-25T01:17:06.757Z,38.30
2023-01-25T01:21:10.485Z,48.20
2023-01-25T01:25:13.949Z,49.10
2023-01-25T01:29:42.543Z,47.80
2023-01-25T01:33:48.705Z,51.00
2023-01-25T01:37:55.026Z,49.70
2023-01-25T01:41:57.975Z,54.10
2023-01-25T01:46:03.860Z,42.00
2023-01-25T01:50:18.741Z,44.40
2023-01-25T01:54:57.776Z,42.00
2023-01-25T01:59:02.720Z,46.80
2023-01-25T02:03:05.547Z,29.80
2023-01-25T02:07:15.206Z,25.80
2023-01-25T02:11:21.882Z,21.20
2023-01-25T02:15:40.780Z,19.80
2023-01-25T02:20:35.303Z,18.90
2023-01-25T02:24:43.107Z,22.70
2023-01-25T02:28:58.118Z,17.60
2023-01-25T02:33:01.106Z,18.40
2023-01-25T02:37:04.006Z,19.20
2023-01-25T02:41:12.843Z,17.50
2023-01-25T02:45:19.174Z,19.10
2023-01-25T02:49:21.966Z,17.90
2023-01-25T02:59:10.608Z,17.40
2023-01-25T03:04:11.476Z,17.00
2023-01-25T03:08:14.258Z,14.50
2023-01-25T03:12:17.067Z,13.80
2023-01-25T03:16:20.044Z,10.60
2023-01-25T03:20:23.218Z,10.40
2023-01-25T03:24:26.102Z,13.60
2023-01-25T03:28:28.923Z,9.30
2023-01-25T03:32:54.699Z,10.60
2023-01-25T03:36:57.491Z,10.50
2023-01-25T03:41:00.430Z,8.90
2023-01-25T03:45:03.597Z,11.00
2023-01-25T03:49:06.776Z,11.30
2023-01-25T03:53:20.047Z,11.60
2023-01-25T03:57:22.812Z,10.80
2023-01-25T04:01:25.698Z,14.40
2023-01-25T04:05:28.466Z,11.40
2023-01-25T04:09:34.658Z,11.80
2023-01-25T04:13:38.624Z,11.00
2023-01-25T04:17:41.524Z,13.20
2023-01-25T04:22:10.536Z,11.60
2023-01-25T04:26:14.529Z,10.50
2023-01-25T04:36:09.247Z,10.90
2023-01-25T04:46:05.796Z,16.50
2023-01-25T04:50:09.173Z,16.00
2023-01-25T04:54:17.056Z,13.30
2023-01-25T04:58:20.007Z,17.00
2023-01-25T05:02:23.008Z,12.10
2023-01-25T05:06:25.885Z,13.30
2023-01-25T05:10:28.639Z,14.40
2023-01-25T05:14:32.583Z,11.90
2023-01-25T05:18:47.523Z,11.20
2023-01-25T05:22:51.045Z,12.40
2023-01-25T05:27:03.391Z,9.90
2023-01-25T05:31:06.478Z,10.30
2023-01-25T05:35:16.394Z,13.00
2023-01-25T05:39:19.128Z,12.80
2023-01-25T05:43:23.781Z,9.60
2023-01-25T05:47:26.619Z,9.90
2023-01-25T05:51:29.663Z,10.60
2023-01-25T05:55:34.931Z,13.60
2023-01-25T05:59:37.756Z,11.70
2023-01-25T06:03:40.641Z,12.60
2023-01-25T06:07:43.631Z,10.70
2023-01-25T06:11:46.424Z,13.80
2023-01-25T06:15:56.379Z,13.90
2023-01-25T06:20:03.908Z,12.10
2023-01-25T06:24:07.022Z,15.20
2023-01-25T06:28:09.817Z,13.10
2023-01-25T06:32:12.671Z,11.40
2023-01-25T06:36:18.948Z,13.60
2023-01-25T06:40:36.265Z,13.00
2023-01-25T06:44:39.091Z,10.90
2023-01-25T06:48:43.074Z,13.10
2023-01-25T06:52:52.641Z,11.50
2023-01-25T06:56:55.779Z,10.90
2023-01-25T07:01:04.673Z,19.20
2023-01-25T07:05:08.256Z,11.00
2023-01-25T07:09:13.416Z,9.70
2023-01-25T07:13:16.260Z,11.40
2023-01-25T07:17:19.078Z,18.00
2023-01-25T07:21:23.719Z,15.50
2023-01-25T07:25:52.530Z,24.20
2023-01-25T07:29:55.413Z,11.90
2023-01-25T07:33:58.853Z,19.80
2023-01-25T07:38:07.867Z,13.80
2023-01-25T07:42:10.792Z,14.50
2023-01-25T07:46:15.556Z,11.90
2023-01-25T07:50:18.643Z,11.80
2023-01-25T07:54:23.848Z,12.10
2023-01-25T07:58:55.609Z,11.70
2023-01-25T08:02:58.353Z,32.90
2023-01-25T08:07:01.135Z,21.00
2023-01-25T08:11:13.313Z,11.10
2023-01-25T08:15:16.465Z,11.40
2023-01-25T08:19:20.409Z,12.80
2023-01-25T08:23:23.677Z,14.80
2023-01-25T08:32:04.990Z,13.10
2023-01-25T08:36:10.840Z,10.90
2023-01-25T08:40:14.835Z,22.00
2023-01-25T08:49:00.764Z,13.00
2023-01-25T08:53:56.661Z,12.80
2023-01-25T09:08:16.518Z,8.50
2023-01-25T09:12:20.483Z,8.80
2023-01-25T09:16:29.550Z,8.20
2023-01-25T09:20:34.615Z,6.90
2023-01-25T09:24:38.924Z,9.90
2023-01-25T09:28:46.661Z,12.70
2023-01-25T09:32:51.389Z,7.70
2023-01-25T09:37:21.016Z,7.10
2023-01-25T09:42:06.589Z,8.40
2023-01-25T09:46:53.841Z,10.70
2023-01-25T09:51:40.845Z,9.20
2023-01-25T09:55:51.235Z,10.10
2023-01-25T09:59:56.383Z,9.50
2023-01-25T10:04:26.870Z,10.80
2023-01-25T10:08:59.108Z,9.40
2023-01-25T10:13:05.961Z,12.20
2023-01-25T10:17:24.309Z,12.20
2023-01-25T10:22:00.730Z,9.30
2023-01-25T10:26:16.999Z,9.90
2023-01-25T10:31:00.342Z,9.80
2023-01-25T10:35:35.530Z,9.70
2023-01-25T10:39:49.973Z,8.70
2023-01-25T10:44:13.943Z,8.40
2023-01-25T10:48:34.579Z,9.70
2023-01-25T10:52:39.093Z,7.40
2023-01-25T10:56:46.021Z,7.40
2023-01-25T11:00:52.688Z,10.30
2023-01-25T11:04:56.887Z,12.00
2023-01-25T11:09:01.587Z,11.90
2023-01-25T11:13:19.687Z,10.50
2023-01-25T11:22:01.766Z,10.40
2023-01-25T11:26:20.122Z,11.80
2023-01-25T11:30:24.026Z,11.70
2023-01-25T11:34:30.192Z,11.20
2023-01-25T11:38:33.991Z,8.60
2023-01-25T11:43:17.561Z,11.20
2023-01-25T11:48:03.603Z,11.60
2023-01-25T12:03:05.485Z,10.10
2023-01-25T12:07:36.547Z,12.50
2023-01-25T12:11:39.225Z,14.40
2023-01-25T12:16:10.217Z,11.60
2023-01-25T12:20:46.942Z,9.60
2023-01-25T12:25:00.645Z,12.30
2023-01-25T12:29:26.797Z,17.00
2023-01-25T12:33:36.437Z,11.70
2023-01-25T12:38:17.710Z,10.10
2023-01-25T12:42:29.381Z,9.00
2023-01-25T12:46:55.919Z,14.10
2023-01-25T12:51:00.205Z,9.80
2023-01-25T12:55:07.135Z,11.50
2023-01-25T12:59:51.773Z,12.30
2023-01-25T13:11:15.135Z,11.00
2023-01-25T13:17:10.150Z,24.80
2023-01-25T13:26:59.575Z,19.90
2023-01-25T13:31:03.847Z,30.50
2023-01-25T13:35:27.042Z,59.20
2023-01-25T13:39:32.791Z,17.60
2023-01-25T13:43:35.600Z,15.50
2023-01-25T13:47:40.932Z,16.10
2023-01-25T13:51:44.118Z,20.20
2023-01-25T13:55:53.420Z,14.10
2023-01-25T14:00:10.245Z,12.40
2023-01-25T14:04:23.116Z,29.60
2023-01-25T14:08:27.595Z,26.50
2023-01-25T14:12:41.626Z,17.30
2023-01-25T14:16:45.649Z,12.20
2023-01-25T14:20:52.412Z,11.00
2023-01-25T14:25:19.508Z,9.80
2023-01-25T14:33:42.688Z,10.60
2023-01-25T14:37:45.528Z,11.30
2023-01-25T14:42:01.057Z,8.30
2023-01-25T14:46:24.826Z,10.50
2023-01-25T14:51:02.343Z,16.50
2023-01-25T14:55:09.406Z,18.50
2023-01-25T14:59:49.465Z,16.80
2023-01-25T15:03:52.237Z,13.60
2023-01-25T15:07:59.240Z,12.50
2023-01-25T15:12:16.267Z,20.10
2023-01-25T15:16:19.066Z,13.90
2023-01-25T15:20:33.724Z,11.50
2023-01-25T15:24:37.969Z,12.50
2023-01-25T15:28:42.151Z,10.80
2023-01-25T15:32:46.038Z,17.50
2023-01-25T15:36:49.142Z,24.50
2023-01-25T15:41:22.642Z,21.50
2023-01-25T15:45:25.447Z,20.00
2023-01-25T15:49:32.924Z,18.30
2023-01-25T15:53:35.653Z,17.00
2023-01-25T15:58:06.735Z,17.30
2023-01-25T16:02:13.227Z,21.30
2023-01-25T16:11:04.572Z,19.70
2023-01-25T16:15:08.416Z,19.60
2023-01-25T16:19:23.850Z,18.10
2023-01-25T16:23:26.639Z,19.70
2023-01-25T16:27:36.213Z,19.80
2023-01-25T16:31:39.190Z,19.00
2023-01-25T16:35:42.206Z,22.50
2023-01-25T16:39:57.340Z,21.00
2023-01-25T16:44:00.160Z,22.30
2023-01-25T16:48:02.960Z,21.70
2023-01-25T16:52:07.149Z,26.50
2023-01-25T16:56:31.740Z,28.30
2023-01-25T17:00:34.872Z,21.60
2023-01-25T17:04:37.659Z,21.80
2023-01-25T17:08:40.471Z,24.80
2023-01-25T17:12:43.356Z,24.30
2023-01-25T17:16:48.588Z,21.90
2023-01-25T17:21:17.771Z,22.70
2023-01-25T17:25:20.692Z,19.90
2023-01-25T17:29:24.903Z,23.50
2023-01-25T17:33:28.439Z,26.10
2023-01-25T17:37:31.357Z,21.70
2023-01-25T17:41:35.076Z,23.00
2023-01-25T17:45:40.914Z,26.70
2023-01-25T17:49:43.984Z,28.20
2023-01-25T17:53:47.107Z,28.50
2023-01-25T17:57:51.518Z,24.00
2023-01-25T18:01:54.873Z,25.10
2023-01-25T18:05:58.448Z,23.20
2023-01-25T18:15:54.950Z,78.70
2023-01-25T18:19:57.905Z,145.50
2023-01-25T18:24:07.933Z,131.10
2023-01-25T18:28:28.791Z,49.10
2023-01-25T18:32:34.139Z,27.40
2023-01-25T18:36:36.966Z,23.30
2023-01-25T18:41:35.002Z,26.10
2023-01-25T18:50:08.286Z,18.60
2023-01-25T18:54:11.468Z,20.10
2023-01-25T18:59:20.075Z,16.10
2023-01-25T19:03:22.976Z,19.50
2023-01-25T19:07:26.575Z,14.00
2023-01-25T19:11:29.601Z,17.20
2023-01-25T19:15:32.416Z,15.00
2023-01-25T19:19:35.263Z,12.90
2023-01-25T19:23:40.941Z,13.70
2023-01-25T19:28:38.864Z,12.80
2023-01-25T19:36:50.247Z,14.70
2023-01-25T19:40:53.106Z,17.10
2023-01-25T19:44:55.913Z,17.20
2023-01-25T19:49:01.898Z,16.50
2023-01-25T19:53:14.499Z,18.00
2023-01-25T19:57:17.596Z,18.30
2023-01-25T20:01:24.295Z,18.00
2023-01-25T20:09:30.504Z,17.40
2023-01-25T20:13:36.884Z,15.50
2023-01-25T20:17:40.056Z,19.20
2023-01-25T20:21:43.882Z,22.80
2023-01-25T20:26:15.017Z,19.30
2023-01-25T20:36:07.870Z,19.60
2023-01-25T20:40:12.912Z,23.20
2023-01-25T20:44:20.198Z,19.80
2023-01-25T20:48:24.695Z,20.10
2023-01-25T20:52:27.920Z,18.80
2023-01-25T20:56:31.928Z,21.20
2023-01-25T21:00:43.277Z,23.10
2023-01-25T21:04:46.324Z,21.00
2023-01-25T21:08:49.186Z,18.40
2023-01-25T21:12:54.349Z,17.80
2023-01-25T21:16:57.395Z,15.90
2023-01-25T21:21:06.484Z,16.30
2023-01-25T21:25:10.088Z,12.80
2023-01-25T21:29:13.498Z,12.10
2023-01-25T21:33:17.316Z,15.00
2023-01-25T21:37:29.455Z,16.10
2023-01-25T21:41:33.938Z,14.10
2023-01-25T21:45:58.331Z,16.30
2023-01-25T21:50:23.502Z,15.50
2023-01-25T21:54:29.867Z,14.40
2023-01-25T21:59:05.285Z,14.20
2023-01-25T22:03:16.690Z,17.90
2023-01-25T22:07:19.468Z,16.70
2023-01-25T22:12:17.729Z,16.50
2023-01-25T22:16:21.590Z,17.90
2023-01-25T22:26:44.215Z,21.80
2023-01-25T22:30:49.163Z,24.30
2023-01-25T22:34:52.336Z,24.00
2023-01-25T22:38:56.254Z,24.50
2023-01-25T22:43:02.874Z,25.60
2023-01-25T22:47:05.948Z,29.60
2023-01-25T22:51:17.622Z,26.30
2023-01-25T22:55:20.408Z,30.60
2023-01-25T22:59:23.143Z,26.40
2023-01-25T23:03:29.039Z,27.10
2023-01-25T23:07:32.015Z,24.50
2023-01-25T23:11:37.799Z,26.70
2023-01-25T23:19:46.912Z,25.90
2023-01-25T23:24:03.211Z,23.80
2023-01-25T23:28:06.159Z,22.50
2023-01-25T23:32:11.373Z,28.20
2023-01-25T23:36:20.624Z,29.40
2023-01-25T23:40:25.061Z,26.20
2023-01-25T23:44:30.290Z,27.80
2023-01-25T23:48:33.821Z,28.80
2023-01-25T23:52:38.886Z,33.60
2023-01-25T23:56:42.784Z,29.30
